Adams, Nebraska
Current Conditions -  °F | °C
As of 2:15 AM on Thursday 29 Jan 2015 (Local Time) from KBIE Reporting Station
Overcast Overcast  
Wind Chill: 26°   Ceiling: 1800
Heat Index: 37°   Visibility: 10mi
Dew Point: 31°   Wind: 25mph
Humidity: 77%   Direction: 340°NNW
Pressure: 30.14"   Gusts: 39mph
Location:  40.46°N, 96.51°W
Report Text: KBIE 290815Z AUTO 34022G34KT 10SM OVC018 03/M01 A3014 RMK AO2 T00301006
Loading
Personal Weather Stations






























Interactive Weather Map New forecast layout! Learn more

10-Day Weather Forecast

Advertisements
Track Severe Weather on mobile